Seven Seas Mariner — C6VV8 — position and weather

sailwx.info

Track history (hours):
 
Tides and Currents Weather Stations Pressure Air Temp Water Temp Dewpoint Dewpoint Depression Visibility Wind Speed Wind Dir Waves Ship Positions

Seven Seas Mariner

Last reported at 2017-Jun-27 22:29 UTC. Time now 2017-Jun-27 22:40 UTC.
Position N 50°43' W 127°02'.

Length 216 m; draft 7.2 m.

Type: Ship. MMSI: 311622000.

Date/timePositionNaut miles runAvg speedWind from/ knotsBaromVisibWave heightAir tempDewpointWater temp
2017-Jun-27 22:29N 50°43' W 127°02'917.3
2017-Jun-27 21:59N 50°46' W 127°15'817.2
2017-Jun-27 21:30N 50°50' W 127°27'816.9
2017-Jun-27 21:00N 50°54' W 127°38'713.4
2017-Jun-27 20:30N 50°58' W 127°47'510.8
2017-Jun-27 20:00N 51°01' W 127°54'815.6
2017-Jun-27 19:30N 51°04' W 128°05'815.7
2017-Jun-27 19:00N 51°07' W 128°17'815.5
2017-Jun-27 18:30N 51°11' W 128°28'815.3
2017-Jun-27 18:00N 51°15' W 128°38'815.7
2017-Jun-27 17:30N 51°20' W 128°48'815.2
2017-Jun-27 17:00N 51°24' W 128°58'2214.8
2017-Jun-27 15:31N 51°38' W 129°26'016.0
2017-Jun-27 15:30N 51°38' W 129°26'  
2017-Jun-19 07:32N 58°20' W 136°07'119.3
2017-Jun-19 07:28N 58°20' W 136°05'  
Track history (hours):
 
Tides and Currents Weather Stations Pressure Air Temp Water Temp Dewpoint Dewpoint Depression Visibility Wind Speed Wind Dir Waves Ship Positions

Seven Seas Mariner

Last reported at 2017-Jun-27 22:29 UTC. Time now 2017-Jun-27 22:40 UTC.
Position N 50°43' W 127°02'.

Length 216 m; draft 7.2 m.

Type: Ship. MMSI: 311622000.

Date/timePositionNaut miles runAvg speedWind from/ knotsBaromVisibWave heightAir tempDewpointWater temp
2017-Jun-27 22:29N 50°43' W 127°02'917.3
2017-Jun-27 21:59N 50°46' W 127°15'817.2
2017-Jun-27 21:30N 50°50' W 127°27'816.9
2017-Jun-27 21:00N 50°54' W 127°38'713.4
2017-Jun-27 20:30N 50°58' W 127°47'510.8
2017-Jun-27 20:00N 51°01' W 127°54'815.6
2017-Jun-27 19:30N 51°04' W 128°05'815.7
2017-Jun-27 19:00N 51°07' W 128°17'815.5
2017-Jun-27 18:30N 51°11' W 128°28'815.3
2017-Jun-27 18:00N 51°15' W 128°38'815.7
2017-Jun-27 17:30N 51°20' W 128°48'815.2
2017-Jun-27 17:00N 51°24' W 128°58'2214.8
2017-Jun-27 15:31N 51°38' W 129°26'016.0
2017-Jun-27 15:30N 51°38' W 129°26'  
2017-Jun-19 07:32N 58°20' W 136°07'119.3
2017-Jun-19 07:28N 58°20' W 136°05'  

Dump ship's entire track history